METAR Data
IDs: Format: Raw Decoded Include TAF

Data at: 1007 UTC 18 Jan 2022

EGPD 180950Z VRB02KT CAVOK M01/M03 Q1029 NOSIG